Date,TemperatureHighF,TemperatureAvgF,TemperatureLowF,DewpointHighF,DewpointAvgF,DewpointLowF,HumidityHigh,HumidityAvg,HumidityLow,PressureMaxIn,PressureMinIn,WindSpeedMaxMPH,WindSpeedAvgMPH,GustSpeedMaxMPH,PrecipitationSumIn
2013-1-1,80.7,66.7,57.5,63.2,59.1,54.6,93,78,52,30.15,29.99,4,0,10,0.00
2013-1-2,80.5,66.8,56.6,68.7,61.6,55.2,97,85,60,30.03,29.94,2,0,6,0.00
2013-1-3,82.4,69.0,61.2,71.4,63.8,59.5,97,85,48,30.07,29.97,2,0,8,0.00
2013-1-4,82.8,71.0,64.2,69.7,66.3,62.1,96,86,59,30.19,30.05,1,0,4,0.00
2013-1-5,81.4,69.2,63.2,67.9,64.1,61.4,95,85,62,30.20,30.09,2,0,10,0.00
2013-1-6,84.1,70.9,64.0,71.3,65.9,61.9,97,85,57,30.13,30.00,2,0,10,0.00
2013-1-7,78.6,71.8,66.4,69.3,66.9,64.0,95,85,68,30.11,30.02,2,0,7,0.00
2013-1-8,85.1,74.3,68.1,70.6,67.4,64.9,95,80,51,30.14,30.03,2,0,6,0.00
2013-1-9,86.1,75.1,67.6,71.4,67.5,63.4,96,79,51,30.20,30.09,2,0,7,0.00
2013-1-10,84.5,73.4,65.3,68.9,64.6,59.0,95,76,44,30.22,30.11,0,0,0,0.00
2013-1-11,83.0,69.5,60.2,68.7,61.8,-99.9,96,79,49,30.20,30.07,0,0,0,0.00
2013-1-12,83.4,70.4,62.3,70.4,63.8,59.3,97,81,56,30.12,30.00,0,0,0,0.00
2013-1-13,83.2,69.1,59.0,69.0,62.2,57.5,97,80,53,30.07,30.00,0,0,0,0.00
2013-1-14,82.6,68.2,58.3,65.6,60.0,56.0,96,77,49,30.11,30.05,0,0,0,0.00
2013-1-15,83.2,68.6,56.0,67.9,61.0,54.3,96,79,51,30.09,29.99,0,0,0,0.00
2013-1-16,82.4,69.0,55.6,68.1,61.5,54.0,97,79,51,30.05,29.95,0,0,0,0.00
2013-1-17,80.1,68.0,60.5,70.9,61.3,51.1,95,80,60,30.07,29.94,0,0,0,0.00
2013-1-18,68.3,58.7,50.2,56.5,49.5,40.4,88,72,54,30.24,30.07,0,0,0,0.00
2013-1-19,75.6,67.3,60.1,64.1,61.1,56.3,93,81,65,30.18,30.04,0,0,0,0.00
2013-1-20,79.4,69.5,64.7,66.6,64.0,62.6,94,84,59,30.11,29.97,0,0,0,0.00
2013-1-21,76.8,67.2,61.8,66.8,63.1,59.1,95,87,67,30.05,29.95,0,0,0,0.00
2013-1-22,72.5,63.2,53.8,59.9,53.1,44.8,94,71,51,30.20,29.99,0,0,0,0.00
2013-1-23,74.7,60.7,51.4,53.0,47.1,41.8,80,62,40,30.27,30.17,0,0,0,0.00
2013-1-24,76.3,58.9,46.1,51.7,45.8,37.9,93,67,29,30.26,30.15,0,0,0,0.00
2013-1-25,77.4,59.2,44.3,55.4,49.2,42.4,95,73,40,30.25,30.13,0,0,0,0.00
2013-1-26,78.8,60.5,46.1,54.8,48.2,40.4,95,70,27,30.22,30.11,0,0,0,0.00
2013-1-27,81.4,65.7,51.0,62.0,55.2,48.3,95,72,44,30.22,30.13,0,0,0,0.00
2013-1-28,82.0,69.7,59.6,65.0,59.7,56.2,94,72,48,30.25,30.14,0,0,0,0.00
2013-1-29,83.4,70.9,59.8,68.4,63.1,57.2,95,78,53,30.18,30.03,0,0,0,0.00
2013-1-30,81.6,70.2,62.0,68.2,63.7,60.0,96,81,54,30.05,29.92,4,0,12,0.00
2013-1-31,70.8,63.3,49.9,69.3,56.3,36.0,95,79,49,30.16,29.89,2,0,7,0.04
2013-2-1,72.5,54.8,40.6,48.4,39.7,34.8,87,60,27,30.25,30.15,2,0,10,0.00
2013-2-2,76.3,58.2,42.2,51.1,44.2,36.1,86,63,35,30.22,30.07,1,0,5,0.00
2013-2-3,74.6,58.5,46.5,50.0,42.9,29.7,90,63,21,30.16,30.02,2,0,7,0.00
2013-2-4,75.1,56.7,39.9,50.3,42.4,26.1,96,65,20,30.11,29.97,2,0,6,0.00
2013-2-5,79.8,62.3,44.8,57.4,50.7,41.8,90,69,43,30.03,29.94,2,0,6,0.00
2013-2-6,81.6,67.5,53.9,64.4,58.8,51.6,93,75,51,30.06,29.96,2,0,4,0.00
2013-2-7,81.8,68.4,56.7,66.3,60.1,55.0,96,77,45,30.02,29.89,4,0,10,0.00
2013-2-8,82.6,71.9,61.3,70.2,63.6,56.4,92,77,45,30.00,29.85,2,0,6,0.00
2013-2-9,80.9,67.3,55.0,63.4,59.2,53.3,96,77,51,30.11,29.99,3,0,9,0.00
2013-2-10,81.6,70.2,59.5,63.7,60.1,56.3,91,72,47,30.17,30.07,2,0,9,0.00
2013-2-11,82.8,69.1,57.5,67.3,62.0,55.8,96,80,53,30.15,30.03,3,0,10,0.00
2013-2-12,82.4,69.4,58.9,70.1,63.8,57.2,97,84,63,30.06,29.92,3,0,9,0.00
2013-2-13,83.6,73.2,63.2,73.8,67.9,61.1,96,85,60,29.95,29.86,3,1,12,0.00
2013-2-14,79.0,65.6,59.2,72.4,63.1,57.5,96,92,77,29.98,29.82,2,0,8,0.24
2013-2-15,66.1,62.8,59.5,64.0,61.2,57.8,96,95,93,30.01,29.90,0,0,2,0.00
2013-2-16,69.1,61.9,53.6,61.9,54.5,47.8,96,78,55,30.05,29.86,3,1,7,0.00
2013-2-17,59.9,50.0,37.0,48.2,31.4,22.2,86,52,26,30.28,30.05,3,1,10,0.00
2013-2-18,73.3,53.0,34.1,49.8,41.3,30.2,92,68,37,30.28,30.16,2,0,6,0.00
2013-2-19,78.8,63.3,48.3,63.8,56.1,46.4,95,79,56,30.16,30.03,3,0,6,0.00
2013-2-20,83.2,66.4,53.8,67.2,56.9,52.4,97,75,37,30.06,29.94,2,0,5,0.00
2013-2-21,83.8,68.9,57.8,68.7,61.3,55.8,96,79,52,30.03,29.94,1,0,7,0.00
2013-2-22,85.5,70.5,58.6,71.6,63.8,56.7,96,81,55,30.03,29.94,3,0,9,0.00
2013-2-23,84.0,73.1,62.9,72.1,68.1,60.8,96,85,64,29.98,29.87,3,0,10,0.00
2013-2-24,85.5,74.3,66.6,73.3,67.9,64.7,97,83,52,29.94,29.85,3,0,6,0.00
2013-2-25,84.3,72.6,62.3,74.2,67.3,60.8,97,85,58,29.87,29.75,3,0,9,0.00
2013-2-26,84.1,75.7,69.8,72.7,70.4,66.0,95,84,67,29.85,29.72,6,1,12,0.00
2013-2-27,73.0,67.1,63.9,66.7,63.8,60.0,95,90,71,29.94,29.82,1,0,5,0.00
2013-2-28,73.7,63.8,59.3,62.4,57.0,51.6,95,80,49,29.99,29.88,1,0,4,0.00
2013-3-1,66.3,61.4,56.5,58.3,52.4,48.4,90,73,56,29.97,29.87,2,0,5,0.00
2013-3-2,65.2,57.1,51.0,48.8,44.2,40.3,86,62,49,30.00,29.94,3,0,9,0.00
2013-3-3,61.0,51.8,43.5,49.3,45.7,40.8,95,81,51,30.11,29.94,2,0,6,0.00
2013-3-4,69.9,51.3,35.6,47.1,40.5,33.8,95,71,27,30.18,30.07,2,0,6,0.00
2013-3-5,75.6,56.7,38.8,55.8,48.0,37.2,97,76,42,30.13,30.04,3,0,9,0.00
2013-3-6,72.0,59.7,47.4,62.8,50.1,40.3,97,74,37,30.08,29.98,3,0,9,0.00
2013-3-7,67.9,53.4,40.3,46.6,40.9,35.2,89,65,32,30.17,30.06,2,0,6,0.00
2013-3-8,77.7,57.6,40.1,51.3,45.1,38.2,95,69,29,30.17,30.05,1,0,5,0.00
2013-3-9,77.9,61.8,43.8,54.2,47.3,41.2,95,65,27,30.16,30.05,2,0,4,0.00
2013-3-10,81.4,65.7,52.0,57.7,53.5,49.6,94,68,39,30.11,29.98,2,0,9,0.07
2013-3-11,80.7,67.1,54.8,63.1,57.9,53.1,96,75,48,30.05,29.88,3,0,6,0.00
2013-3-12,76.0,66.9,59.0,69.5,62.5,55.7,96,86,73,29.97,29.85,3,1,10,0.00
2013-3-13,77.7,62.3,50.7,55.5,47.8,37.5,93,64,25,30.11,29.97,3,0,8,0.00
2013-3-14,74.9,58.8,47.7,47.7,40.6,26.1,86,57,17,30.19,30.07,5,0,10,0.00
2013-3-15,76.1,57.4,43.2,45.8,39.3,26.5,90,59,19,30.23,30.09,2,0,7,0.00
2013-3-16,78.1,59.9,43.2,54.4,46.6,40.5,95,66,28,30.15,30.03,3,0,9,0.00
2013-3-17,79.0,63.5,48.0,61.8,54.1,45.8,95,74,49,30.09,29.96,3,0,7,0.00
2013-3-18,80.7,67.6,58.4,68.7,63.1,54.5,95,86,64,30.00,29.91,3,0,7,0.43
2013-3-19,80.3,69.7,62.6,68.3,65.2,60.1,96,86,65,29.98,29.80,2,0,4,0.02
2013-3-20,84.3,67.3,57.3,66.8,59.9,55.9,96,80,40,29.96,29.77,2,0,6,0.10
2013-3-21,76.5,64.7,52.0,62.4,53.6,44.3,95,71,33,29.92,29.80,2,0,5,0.00
2013-3-22,82.6,65.6,48.5,69.6,59.1,45.7,93,81,61,29.93,29.84,3,0,10,0.00
2013-3-23,86.5,75.7,68.1,73.5,67.8,64.7,96,79,51,29.91,29.77,3,1,10,0.00
2013-3-24,83.2,75.2,65.8,73.5,70.1,64.0,96,85,67,29.82,29.66,6,2,16,0.00
2013-3-25,80.5,70.8,57.8,72.5,56.2,30.5,93,64,28,29.99,29.71,2,0,6,0.00
2013-3-26,67.1,58.1,49.1,46.4,41.3,34.8,75,55,32,30.19,29.99,3,1,12,0.00
2013-3-27,68.1,53.6,41.3,44.7,38.0,29.2,83,59,26,30.25,30.14,2,0,9,0.00
2013-3-28,76.0,56.5,39.9,46.8,38.0,24.4,89,58,16,30.25,30.11,2,0,7,0.00
2013-3-29,78.6,59.4,41.8,49.6,42.1,37.9,94,60,24,30.26,30.13,4,0,9,0.00
2013-3-30,81.4,63.3,49.4,56.0,51.0,46.0,93,68,34,30.21,30.08,2,0,6,0.00
2013-3-31,82.2,65.6,51.4,61.7,56.0,49.2,95,74,44,30.15,29.98,4,0,8,0.00
2013-4-1,84.0,70.8,58.7,70.2,63.1,56.7,96,79,50,30.00,29.92,3,0,10,0.00
2013-4-2,86.3,72.6,61.6,68.9,63.4,59.9,96,76,46,30.04,29.95,3,0,5,0.00
2013-4-3,78.5,65.6,62.6,69.5,62.7,60.5,96,91,67,30.02,29.95,1,0,5,0.00
2013-4-4,68.9,65.9,65.3,64.6,63.9,63.2,95,94,84,29.97,29.84,2,0,6,0.42
2013-4-5,68.1,66.4,64.8,65.4,64.7,63.6,96,94,87,29.97,29.75,5,1,14,0.46
2013-4-6,80.5,66.7,59.2,62.1,58.2,55.1,93,76,45,30.04,29.92,3,0,7,0.00
2013-4-7,86.1,66.5,57.3,65.3,58.8,-99.9,96,80,38,30.07,29.97,3,0,7,0.00
2013-4-9,88.0,77.7,58.3,67.6,63.7,56.1,95,64,41,30.08,29.98,2,0,6,0.00
2013-4-10,88.4,72.9,63.4,75.9,67.7,61.6,95,85,52,30.05,29.91,2,0,13,0.86
2013-4-11,84.0,74.6,68.4,74.1,70.0,67.1,97,86,66,29.95,29.81,2,0,9,0.00
2013-4-12,88.0,78.7,73.2,76.1,72.0,68.6,95,81,54,29.89,29.82,4,0,10,0.09
2013-4-13,89.9,80.1,71.8,73.4,70.2,67.5,93,74,50,29.92,29.79,2,0,6,0.00
2013-4-14,89.7,77.8,67.4,75.5,70.2,65.6,95,79,54,29.91,29.80,3,0,11,0.00
2013-4-15,91.8,79.7,66.6,75.6,69.9,64.4,93,74,47,30.00,29.88,2,0,6,0.08
2013-4-17,85.7,82.4,80.1,72.9,68.8,65.7,68,64,59,30.04,29.95,2,1,5,0.00
2013-4-18,90.5,80.1,67.3,73.4,69.1,64.4,93,71,48,29.98,29.88,2,0,6,0.01
2013-4-19,89.3,76.8,69.6,74.2,69.5,67.2,95,80,52,29.97,29.92,3,0,11,0.00
2013-7-4,92.1,83.4,76.0,78.6,75.6,70.9,93,79,52,30.08,29.99,1,0,5,0.10
2013-7-5,89.5,77.7,73.0,77.0,73.1,70.2,95,87,62,30.07,29.98,3,0,12,0.30
2013-7-6,94.9,81.1,73.9,78.6,73.6,70.1,96,80,45,30.05,29.94,1,0,6,0.01
2013-7-7,94.3,80.9,75.3,77.7,74.2,70.6,95,82,49,30.05,29.95,3,0,11,0.16
2013-7-8,95.4,81.1,72.8,76.7,72.5,66.6,96,78,40,30.08,30.00,2,0,5,0.00
2013-7-9,91.0,78.7,72.0,75.8,72.8,69.9,94,83,51,30.08,30.00,2,0,6,0.29
2013-7-10,89.0,77.2,70.9,75.8,72.1,69.4,96,86,59,30.03,29.94,1,0,4,0.01
2013-7-11,89.9,79.7,72.3,77.9,73.3,70.8,96,82,60,29.98,29.88,1,0,5,0.12
2013-7-12,89.0,78.4,72.1,77.1,72.7,70.3,95,84,62,29.92,29.83,1,0,4,0.39
2013-7-13,88.4,76.1,72.3,79.0,73.0,70.3,95,90,66,29.94,29.86,1,0,5,0.35
2013-7-14,82.2,75.3,72.5,78.9,72.6,70.4,96,92,78,30.04,29.91,2,0,6,0.18
2013-7-15,91.5,78.0,71.6,76.4,72.2,68.8,95,83,50,30.03,29.94,1,0,5,0.03
2013-7-16,87.6,79.0,72.7,74.3,71.5,68.3,95,79,59,30.05,29.98,3,0,11,0.06
2013-7-17,87.8,78.7,72.8,72.8,71.0,68.9,93,78,57,30.06,29.97,3,0,9,0.00
2013-7-18,81.8,74.2,71.1,75.7,71.6,69.5,95,92,79,30.08,29.99,1,0,4,0.65
2013-7-19,92.9,79.9,70.6,78.9,73.2,69.1,96,82,52,30.06,29.97,1,0,6,0.00
2013-7-20,92.7,79.3,74.2,79.3,73.9,69.4,95,84,58,30.05,29.97,2,0,5,0.01
2013-7-21,90.7,80.4,74.2,80.3,75.4,72.2,95,85,62,30.09,29.98,0,0,3,0.08
2013-7-22,93.4,81.4,72.7,78.1,74.3,70.9,95,80,57,30.09,30.02,1,0,5,0.00
2013-7-23,93.2,81.6,72.8,78.0,73.4,71.0,95,78,51,30.05,29.94,2,0,5,0.00
2013-7-24,91.4,80.9,71.8,77.9,72.4,70.0,95,77,54,29.98,29.88,1,0,7,0.00
2013-7-25,92.5,81.4,73.2,77.3,73.6,70.8,94,79,58,29.98,29.87,3,0,6,0.00
2013-7-26,93.2,83.0,76.3,77.7,74.3,71.6,89,76,54,29.99,29.91,2,0,7,0.00
2013-7-27,94.9,82.3,75.8,76.4,73.6,71.8,89,76,52,29.95,29.88,1,0,5,0.00
2013-7-28,93.6,81.9,71.8,76.5,72.0,69.3,95,74,48,30.01,29.89,2,0,6,0.00
2013-7-29,95.9,77.6,71.6,77.6,72.6,69.0,95,86,50,30.08,29.97,2,0,10,1.75
2013-7-30,92.5,79.1,73.5,80.5,74.7,72.3,97,87,59,30.10,30.01,3,0,7,0.28
2013-7-31,93.8,78.3,73.3,79.0,74.4,70.6,96,89,55,30.06,29.94,2,0,7,0.90
2013-8-1,93.6,79.2,72.3,80.2,73.3,69.8,96,84,51,30.00,29.86,1,0,5,0.48
2013-8-2,93.4,80.7,70.8,78.4,73.5,69.3,96,81,50,30.00,29.88,1,0,5,0.01
2013-8-3,88.8,77.9,74.9,81.0,75.2,72.1,95,92,69,30.06,29.97,1,0,3,1.02
2013-8-4,91.8,82.0,74.9,80.8,76.1,73.4,96,83,60,30.05,29.96,2,0,5,0.00
2013-8-5,92.3,82.2,75.6,80.2,76.0,73.8,95,82,60,30.00,29.89,1,0,6,0.01
2013-8-6,94.0,82.6,75.4,80.0,75.2,72.6,95,80,51,29.93,29.84,2,0,5,0.00
2013-8-7,92.1,79.9,73.5,78.8,74.3,71.7,95,84,59,29.91,29.84,1,0,6,0.00
2013-8-8,96.8,81.9,74.0,78.5,73.6,69.2,95,78,41,29.95,29.85,1,0,6,0.00
2013-8-9,91.2,77.7,72.8,77.7,72.8,-99.9,95,87,57,30.00,29.89,1,0,5,0.27
2013-8-10,96.3,82.4,72.5,79.4,72.7,68.6,96,75,44,30.05,29.96,2,0,10,0.00
2013-8-11,97.3,84.2,74.9,77.8,73.7,68.8,94,73,40,30.07,29.97,1,0,7,0.00
2013-8-12,96.1,83.0,72.5,76.1,72.4,68.2,95,73,43,30.06,29.93,2,0,7,0.00
2013-8-13,94.0,81.7,73.3,78.6,74.4,70.8,94,80,49,29.99,29.88,1,0,4,0.08
2013-8-14,92.7,79.3,71.1,78.6,73.3,69.5,96,84,51,29.97,29.86,2,0,5,0.82
2013-8-15,84.3,78.5,74.2,77.4,74.9,72.6,96,89,75,30.00,29.89,0,0,2,0.15
2013-8-16,95.4,81.3,75.3,78.6,74.9,71.0,95,83,47,30.00,29.89,2,0,6,0.08
2013-8-17,95.1,81.0,74.6,80.8,75.0,70.7,96,84,46,30.01,29.92,1,0,7,0.03
2013-8-18,77.0,75.6,74.9,74.2,73.4,72.7,94,93,91,30.01,29.95,0,0,0,0.00